»·PEaware :: AAL102 KLAS-KSAN

AAL102 :: KLAS-KSAN

FLIGHT INFORMATION

Flight Status: Arrived
Operator:
American Airlines
More flights by this operator :: More flights under this callsign
Pilot: Cole F. (14495)
Aircraft: BOEING 737-800
(B738)
More flights by this aircraft type
Origin: KLAS McCarran Intl
United States
Destination: KSAN San Diego Intl-Lindbergh
United States
More flights between these airports :: More routes between these airports
Route: +BOACH8 LVELL LUCKI1
File this flight plan on PilotEdge
Remarks:
Altitude:
(Current/Filed)
36,000ft
Speed:
(Current/Filed)
458kts
Departed: 16-Apr-18 01:07 PM
Arrived: 16-Apr-18 01:55 PM
Distance/Time
Traveled:
225nm/0:48
Distance/Time
To Go:
Arrived

Flight Plot

Page will automatically refresh every two minutes.

Flight plan parsing failed; only flown route is shown


Map Options




Map Legend


Flown Route
Filed Route
Departure Airport
Arrival Airport
Navaid (VOR, NDB)
Fix

Horizontal Profiles

Position Reports

Time Latitude Longitude Heading Altitude Ground
Speed
16-Apr-18 12:29 36.081367 -115.135648 245 2149ft 0kts
16-Apr-18 12:30 36.081367 -115.135648 245 2149ft 0kts
16-Apr-18 12:31 36.081367 -115.135648 245 2149ft 0kts
16-Apr-18 12:32 36.081367 -115.135648 245 2149ft 0kts
16-Apr-18 12:33 36.081367 -115.135648 245 2149ft 0kts
16-Apr-18 12:34 36.081367 -115.135648 245 2149ft 0kts
16-Apr-18 12:35 36.081367 -115.135648 245 2149ft 0kts
16-Apr-18 12:36 36.081367 -115.135648 245 2149ft 0kts
16-Apr-18 12:37 36.081367 -115.135648 245 2149ft 0kts
16-Apr-18 12:38 36.081367 -115.135648 245 2149ft 0kts
16-Apr-18 12:39 36.081367 -115.135648 245 2149ft 0kts
16-Apr-18 12:40 36.081367 -115.135648 245 2149ft 0kts
16-Apr-18 12:41 36.081367 -115.135648 245 2149ft 0kts
16-Apr-18 12:42 36.081367 -115.135648 245 2149ft 0kts
16-Apr-18 12:43 36.081367 -115.135648 245 2149ft 0kts
16-Apr-18 12:44 36.081409 -115.135534 249 2149ft 2kts
16-Apr-18 12:45 36.081490 -115.134812 269 2149ft 1kts
16-Apr-18 12:46 36.081837 -115.134398 171 2149ft 2kts
16-Apr-18 12:47 36.081975 -115.134458 153 2149ft 0kts
16-Apr-18 12:48 36.081975 -115.134458 153 2149ft 0kts
16-Apr-18 12:49 36.081467 -115.134168 160 2149ft 7kts
16-Apr-18 12:50 36.078593 -115.135131 225 2149ft 18kts
16-Apr-18 12:51 36.078236 -115.138594 272 2149ft 17kts
16-Apr-18 12:52 36.078300 -115.143895 275 2149ft 16kts
16-Apr-18 12:53 36.078711 -115.150127 274 2148ft 19kts
16-Apr-18 12:54 36.081007 -115.154590 334 2148ft 16kts
16-Apr-18 12:55 36.085745 -115.157321 335 2149ft 20kts
16-Apr-18 12:56 36.090506 -115.155923 22 2149ft 19kts
16-Apr-18 12:57 36.095532 -115.153054 25 2149ft 21kts
16-Apr-18 12:58 36.097997 -115.152448 292 2149ft 0kts
16-Apr-18 12:59 36.097997 -115.152448 292 2149ft 0kts
16-Apr-18 13:00 36.097997 -115.152448 292 2149ft 0kts
16-Apr-18 13:01 36.097997 -115.152448 292 2149ft 0kts
16-Apr-18 13:02 36.097997 -115.152448 292 2149ft 0kts
16-Apr-18 13:03 36.097997 -115.152448 292 2149ft 0kts
16-Apr-18 13:04 36.098288 -115.153433 270 2149ft 3kts
16-Apr-18 13:05 36.097784 -115.154031 201 2149ft 0kts
16-Apr-18 13:06 36.072049 -115.168982 205 3179ft 173kts
16-Apr-18 13:07 36.019818 -115.198458 213 5451ft 253kts
16-Apr-18 13:08 35.981282 -115.273704 236 6950ft 267kts
16-Apr-18 13:09 35.914810 -115.306095 188 10403ft 275kts
16-Apr-18 13:10 35.832524 -115.311557 182 13419ft 311kts
16-Apr-18 13:11 35.745373 -115.301934 182 17001ft 322kts
16-Apr-18 13:12 35.655725 -115.293326 189 20305ft 324kts
16-Apr-18 13:13 35.563621 -115.297627 190 22851ft 343kts
16-Apr-18 13:14 35.469657 -115.301772 190 22850ft 340kts
16-Apr-18 13:15 35.379395 -115.305588 191 25433ft 346kts
16-Apr-18 13:16 35.281942 -115.309667 191 27724ft 357kts
16-Apr-18 13:17 35.181986 -115.313748 191 29959ft 362kts
16-Apr-18 13:18 35.082677 -115.317673 191 32291ft 356kts
16-Apr-18 13:19 34.984861 -115.321534 191 34307ft 350kts
16-Apr-18 13:20 34.889429 -115.325320 192 35868ft 349kts
16-Apr-18 13:21 34.788201 -115.329901 194 35864ft 381kts
16-Apr-18 13:22 34.690042 -115.368901 206 35854ft 371kts
16-Apr-18 13:23 34.593146 -115.411900 206 35855ft 372kts
16-Apr-18 13:24 34.496142 -115.454583 206 35933ft 371kts
16-Apr-18 13:25 34.399234 -115.497016 206 35931ft 371kts
16-Apr-18 13:26 34.304118 -115.542531 215 35932ft 362kts
16-Apr-18 13:27 34.218245 -115.606987 216 35927ft 364kts
16-Apr-18 13:28 34.124420 -115.655009 207 35933ft 370kts
16-Apr-18 13:29 34.031657 -115.698735 207 35938ft 370kts
16-Apr-18 13:30 33.936259 -115.743588 207 35928ft 365kts
16-Apr-18 13:31 33.842350 -115.789168 207 33492ft 373kts
16-Apr-18 13:32 33.745510 -115.836248 207 30828ft 380kts
16-Apr-18 13:33 33.648710 -115.881532 207 28889ft 368kts
16-Apr-18 13:34 33.554029 -115.925751 206 26659ft 365kts
16-Apr-18 13:35 33.481096 -115.998532 235 24818ft 342kts
16-Apr-18 13:36 33.430712 -116.086913 235 23227ft 331kts
16-Apr-18 13:37 33.379198 -116.176321 235 21606ft 323kts
16-Apr-18 13:38 33.324056 -116.258234 214 20039ft 320kts
16-Apr-18 13:39 33.244414 -116.305884 210 18421ft 320kts
16-Apr-18 13:40 33.164986 -116.352186 210 16837ft 318kts
16-Apr-18 13:41 33.085873 -116.398250 210 15159ft 307kts
16-Apr-18 13:42 33.012896 -116.440619 210 13893ft 296kts
16-Apr-18 13:43 32.948082 -116.501048 222 12376ft 301kts
16-Apr-18 13:44 32.882879 -116.567083 221 10866ft 319kts
16-Apr-18 13:45 32.818907 -116.631662 221 9413ft 304kts
16-Apr-18 13:46 32.760684 -116.699352 240 7927ft 295kts
16-Apr-18 13:47 32.724457 -116.777961 241 6424ft 262kts
16-Apr-18 13:48 32.693889 -116.853526 252 5173ft 235kts
16-Apr-18 13:49 32.686696 -116.923869 277 4708ft 215kts
16-Apr-18 13:50 32.692774 -116.996199 274 3400ft 224kts
16-Apr-18 13:51 32.703287 -117.065507 287 2163ft 201kts
16-Apr-18 13:52 32.717532 -117.123738 287 1072ft 165kts
16-Apr-18 13:53 32.729262 -117.172339 289 224ft 128kts
16-Apr-18 13:54 32.734206 -117.194979 249 25ft 13kts
16-Apr-18 13:55 32.734031 -117.195621 261 25ft 7kts
16-Apr-18 13:56 32.733984 -117.200048 257 25ft 13kts

Navigation Log

Ident Type
Flight plan parsing failed, navigation log unavailable